Foxboro, Massachusetts
Current Conditions -  °F | °C
As of 2:53 PM on Sunday 21 Dec 2014 (Local Time) from KOWD Reporting Station
Light Snow Light Snow  
Wind Chill: 30°   Ceiling: 1400
Heat Index: 34°   Visibility: 5mi
Dew Point: 28°   Wind: 5mph
Humidity: 79%   Direction: 350°N
Pressure: 30.3"   Gusts: NA
Location:  42.06°N, 71.25°W
Report Text: KOWD 211953Z 35004KT 5SM -SN OVC014 01/M02 A3030 RMK AO2 SNB35 SLP261 P0000 T00111022
Loading
Personal Weather Stations






























Interactive Weather Map New forecast layout! Learn more

10-Day Weather Forecast

Advertisements
Track Severe Weather on mobile